Time;durP1;ratioP1;P1;durP2;ratioP2;P2;SDS_P1;SDS_P2;PMS_P1;PMS_P2;Temp;Humidity;BMP_temperature;BMP_pressure;BME280_temperature;BME280_humidity;BME280_pressure;Samples;Min_cycle;Max_cycle;Signal;HPM_P1;HPM_P2
2022/03/06 00:03:29;;;;;;;32.50;19.40;;;;;;;-1.27;56.63;100247.46;444214;1271;141823;-63
2022/03/06 00:13:35;;;;;;;19.10;12.40;;;;;;;-1.32;57.24;100242.50;444071;1271;141417;-64
2022/03/06 00:23:41;;;;;;;23.00;13.70;;;;;;;-1.30;56.66;100244.55;446913;1273;141012;-69
2022/03/06 00:33:47;;;;;;;17.80;12.20;;;;;;;-1.30;56.60;100240.77;446317;1271;141848;-68
2022/03/06 00:43:53;;;;;;;17.00;8.80;;;;;;;-1.28;55.91;100235.95;447319;1271;143169;-60
2022/03/06 00:53:59;;;;;;;8.80;6.40;;;;;;;-1.25;55.10;100233.87;444622;1273;141821;-59
2022/03/06 01:04:05;;;;;;;9.50;6.30;;;;;;;-1.23;54.81;100234.05;446197;1272;140787;-60
2022/03/06 01:14:11;;;;;;;7.90;5.20;;;;;;;-1.29;54.34;100227.02;435534;1271;140659;-61
2022/03/06 01:24:17;;;;;;;7.50;5.30;;;;;;;-1.39;53.91;100221.05;431512;1273;143988;-60
2022/03/06 01:34:22;;;;;;;7.00;4.90;;;;;;;-1.53;53.59;100216.66;436586;1273;141356;-60
2022/03/06 01:44:28;;;;;;;7.30;5.80;;;;;;;-1.61;53.33;100210.52;446816;1272;141861;-60
2022/03/06 01:54:34;;;;;;;12.60;5.90;;;;;;;-1.63;53.10;100206.39;445898;1273;141902;-60
2022/03/06 02:04:40;;;;;;;9.80;6.00;;;;;;;-1.62;52.95;100212.39;446861;1271;140881;-61
2022/03/06 02:14:46;;;;;;;7.70;4.60;;;;;;;-1.66;52.89;100211.38;446910;1271;140578;-61
2022/03/06 02:24:52;;;;;;;5.80;4.60;;;;;;;-1.69;52.58;100203.84;439880;1271;142095;-61
2022/03/06 02:34:57;;;;;;;6.30;4.20;;;;;;;-1.73;52.47;100202.31;446943;1271;143511;-60
2022/03/06 02:45:15;;;;;;;7.10;3.90;;;;;;;-1.75;52.38;100199.23;446944;1271;143084;-60
2022/03/06 02:55:22;;;;;;;7.20;3.20;;;;;;;-1.74;52.38;100199.57;446899;1271;142383;-60
2022/03/06 03:05:29;;;;;;;5.30;2.90;;;;;;;-1.74;52.09;100194.41;446872;1271;140749;-61
2022/03/06 03:15:35;;;;;;;5.10;3.70;;;;;;;-1.75;52.14;100200.42;446175;1271;141484;-61
2022/03/06 03:25:41;;;;;;;5.00;3.20;;;;;;;-1.77;52.23;100201.81;446910;1271;142565;-61
2022/03/06 03:35:47;;;;;;;4.60;3.00;;;;;;;-1.79;52.11;100196.67;446920;1271;141636;-61
2022/03/06 03:45:53;;;;;;;4.40;3.80;;;;;;;-1.83;52.20;100200.29;446092;1270;141586;-61
2022/03/06 03:55:59;;;;;;;4.50;3.50;;;;;;;-1.85;51.99;100199.95;446883;1270;141502;-61
2022/03/06 04:06:05;;;;;;;4.50;3.10;;;;;;;-1.88;52.19;100201.84;446917;1271;145977;-60
2022/03/06 04:16:11;;;;;;;3.30;2.90;;;;;;;-1.91;52.14;100199.63;446965;1271;141837;-61
2022/03/06 04:26:17;;;;;;;4.60;3.30;;;;;;;-1.93;51.86;100200.49;444460;1271;142063;-68
2022/03/06 04:36:22;;;;;;;5.50;3.90;;;;;;;-1.98;51.83;100204.45;446136;1270;143084;-60
2022/03/06 04:46:28;;;;;;;5.60;3.20;;;;;;;-2.00;51.98;100205.31;446972;1271;141348;-60
2022/03/06 04:56:34;;;;;;;3.80;2.90;;;;;;;-1.99;51.97;100202.05;446931;1271;142390;-60
2022/03/06 05:06:40;;;;;;;5.10;3.00;;;;;;;-1.99;51.92;100199.65;446166;1271;141321;-61
2022/03/06 05:16:46;;;;;;;4.10;3.50;;;;;;;-2.00;51.68;100202.58;446948;1271;141496;-60
2022/03/06 05:26:51;;;;;;;4.40;4.00;;;;;;;-2.03;51.84;100197.42;446954;1271;142660;-60
2022/03/06 05:36:57;;;;;;;4.80;2.70;;;;;;;-2.02;51.70;100199.83;446243;1271;142678;-61
2022/03/06 05:47:03;;;;;;;3.70;3.00;;;;;;;-2.00;51.74;100202.91;436188;1271;143306;-61
2022/03/06 05:57:09;;;;;;;5.30;3.50;;;;;;;-2.00;51.62;100197.94;446175;1271;141688;-62
2022/03/06 06:07:14;;;;;;;3.90;3.10;;;;;;;-1.96;51.48;100193.48;446878;1271;142163;-61
2022/03/06 06:17:20;;;;;;;4.20;3.40;;;;;;;-1.90;51.10;100198.94;446958;1271;141203;-61
2022/03/06 06:27:26;;;;;;;8.20;3.60;;;;;;;-1.81;51.06;100204.23;446211;1271;142487;-61
2022/03/06 06:37:32;;;;;;;5.30;3.70;;;;;;;-1.70;50.92;100205.55;446935;1271;142748;-61
2022/03/06 06:47:38;;;;;;;3.80;3.00;;;;;;;-1.54;50.61;100208.94;433187;1271;143223;-59
2022/03/06 06:57:44;;;;;;;4.30;3.00;;;;;;;-1.42;50.24;100208.19;429023;1271;142353;-60
2022/03/06 07:07:50;;;;;;;5.80;2.70;;;;;;;-1.27;50.17;100203.65;443103;1270;142881;-61
2022/03/06 07:17:58;;;;;;;4.70;3.80;;;;;;;-0.94;50.00;100207.05;447276;1270;141185;-61
2022/03/06 07:28:04;;;;;;;5.00;3.70;;;;;;;-0.67;49.58;100204.46;444761;1270;143254;-61
2022/03/06 07:38:10;;;;;;;3.90;2.90;;;;;;;-0.45;49.04;100202.73;447057;1270;141664;-60
2022/03/06 07:48:16;;;;;;;5.00;3.80;;;;;;;-0.11;49.01;100209.82;443329;1270;142764;-60
2022/03/06 07:58:22;;;;;;;3.60;2.80;;;;;;;0.28;48.11;100207.16;445012;1270;143268;-59
2022/03/06 08:08:28;;;;;;;4.60;3.60;;;;;;;0.75;47.44;100202.60;434128;1270;141346;-60
2022/03/06 08:18:34;;;;;;;4.50;4.10;;;;;;;1.48;46.91;100193.56;441295;1269;141411;-60
2022/03/06 08:28:40;;;;;;;5.10;4.00;;;;;;;2.30;46.18;100190.70;443429;1270;141006;-60
2022/03/06 08:38:46;;;;;;;5.20;4.70;;;;;;;2.67;45.23;100192.19;437673;1270;196060;-61
2022/03/06 08:48:52;;;;;;;5.80;4.40;;;;;;;3.10;44.61;100190.18;429594;1270;141413;-61
2022/03/06 08:58:58;;;;;;;5.40;4.40;;;;;;;3.64;44.35;100184.02;430155;1270;140311;-61
2022/03/06 09:09:04;;;;;;;8.70;6.10;;;;;;;4.30;43.64;100181.73;435086;1270;141288;-60
2022/03/06 09:19:10;;;;;;;6.00;5.20;;;;;;;4.36;42.81;100182.27;436333;1270;143110;-60
2022/03/06 09:29:16;;;;;;;5.70;5.10;;;;;;;4.13;42.56;100189.66;429823;1270;143135;-62
2022/03/06 09:39:22;;;;;;;6.80;5.10;;;;;;;3.62;42.51;100183.20;436532;1269;140638;-61
2022/03/06 09:49:27;;;;;;;6.90;6.00;;;;;;;3.54;42.70;100180.98;445675;1270;140894;-61
2022/03/06 09:59:34;;;;;;;6.30;5.60;;;;;;;3.38;42.15;100177.94;447231;1270;141148;-61
2022/03/06 10:09:47;;;;;;;7.10;5.60;;;;;;;2.88;42.49;100178.58;436667;1271;140932;-61
2022/03/06 10:19:58;;;;;;;5.90;5.30;;;;;;;3.01;42.41;100171.70;446916;1271;142008;-61
2022/03/06 10:30:22;;;;;;;8.70;6.80;;;;;;;3.18;42.23;100167.34;447332;1270;142067;-61
2022/03/06 10:40:39;;;;;;;7.00;6.30;;;;;;;3.10;42.45;100164.07;447285;1270;141773;-61
2022/03/06 10:50:45;;;;;;;6.70;5.10;;;;;;;3.15;41.99;100160.15;447296;1270;140845;-62
2022/03/06 11:00:51;;;;;;;9.20;7.30;;;;;;;3.18;41.59;100143.48;437837;1270;141701;-62
2022/03/06 11:10:57;;;;;;;6.90;6.20;;;;;;;2.89;41.59;100136.00;447190;1271;141674;-62
2022/03/06 11:21:06;;;;;;;6.50;5.90;;;;;;;2.78;41.95;100131.77;441941;1270;141846;-61
2022/03/06 11:31:12;;;;;;;7.90;7.10;;;;;;;2.60;41.99;100119.91;447273;1269;151040;-61
2022/03/06 11:41:18;;;;;;;7.40;5.80;;;;;;;2.44;42.07;100109.38;446285;1271;142769;-62
2022/03/06 11:51:33;;;;;;;6.80;6.10;;;;;;;2.45;41.90;100105.55;446534;1270;141631;-62
2022/03/06 12:01:41;;;;;;;6.40;5.80;;;;;;;2.41;42.09;100101.48;447411;1270;141772;-62
2022/03/06 12:11:48;;;;;;;12.40;7.60;;;;;;;2.29;41.90;100088.96;447185;1270;141816;-62
2022/03/06 12:22:08;;;;;;;10.30;7.20;;;;;;;2.03;41.93;100077.91;446145;1271;141125;-73
2022/03/06 12:32:33;;;;;;;12.00;7.80;;;;;;;2.01;42.29;100069.00;447339;1270;153605;-73
2022/03/06 12:42:40;;;;;;;7.40;6.70;;;;;;;1.93;42.44;100058.79;446537;1270;141301;-74
2022/03/06 12:52:48;;;;;;;10.10;7.10;;;;;;;1.79;42.23;100049.06;435382;1270;141789;-72
2022/03/06 13:02:55;;;;;;;9.80;7.30;;;;;;;1.54;42.13;100047.84;444618;1270;141312;-73
2022/03/06 13:13:02;;;;;;;12.40;7.60;;;;;;;1.45;42.53;100048.53;438424;1270;141646;-73
2022/03/06 13:23:18;;;;;;;10.10;9.10;;;;;;;1.43;42.34;100043.90;447280;1270;153800;-73
2022/03/06 13:33:24;;;;;;;8.90;8.00;;;;;;;1.34;42.43;100042.69;446629;1270;141601;-74
2022/03/06 13:43:38;;;;;;;9.70;7.70;;;;;;;0.89;42.44;100042.62;447421;1271;141603;-72
2022/03/06 13:53:55;;;;;;;8.10;7.30;;;;;;;0.85;42.92;100039.41;447424;1270;142124;-74
2022/03/06 14:04:01;;;;;;;;;;;;;;;0.86;42.87;100041.98;433425;1271;140040;-72
2022/03/06 14:14:07;;;;;;;11.70;9.30;;;;;;;0.76;43.11;100036.29;443499;1273;127849;-72
2022/03/06 14:24:14;;;;;;;9.90;8.10;;;;;;;0.66;43.00;100036.27;445084;1271;141924;-73
2022/03/06 14:34:21;;;;;;;11.30;8.80;;;;;;;0.44;43.25;100036.78;431568;1273;141199;-72
2022/03/06 14:44:27;;;;;;;10.00;8.60;;;;;;;0.37;43.32;100036.53;447305;1271;141773;-73
2022/03/06 14:54:33;;;;;;;6.40;5.80;;;;;;;0.20;43.57;100036.94;446470;1271;141741;-73
2022/03/06 15:04:39;;;;;;;10.10;8.00;;;;;;;0.08;43.69;100036.24;447361;1270;141818;-73
2022/03/06 15:14:45;;;;;;;9.40;8.30;;;;;;;0.00;43.75;100035.67;444908;1271;142424;-73
2022/03/06 15:24:51;;;;;;;9.30;7.80;;;;;;;-0.16;43.81;100038.63;437208;1271;141095;-72
2022/03/06 15:34:57;;;;;;;8.10;7.20;;;;;;;-0.31;44.05;100034.85;447349;1270;141864;-73
2022/03/06 15:45:03;;;;;;;12.30;9.70;;;;;;;-0.43;44.10;100032.75;438973;1271;141156;-73
2022/03/06 15:55:11;;;;;;;10.70;8.50;;;;;;;-0.72;44.31;100036.51;446711;1273;140786;-73
2022/03/06 16:05:17;;;;;;;9.90;8.80;;;;;;;-0.91;44.52;100032.58;443973;1270;142562;-71
2022/03/06 16:15:23;;;;;;;9.50;8.40;;;;;;;-1.03;44.81;100042.14;445230;1270;142133;-74
2022/03/06 16:25:30;;;;;;;10.90;8.90;;;;;;;-1.20;44.98;100044.34;447332;1270;141997;-73
2022/03/06 16:35:34;;;;;;;;;;;;;;;-1.31;45.23;100053.35;447413;1270;141772;-72
2022/03/06 16:45:56;;;;;;;12.40;8.80;;;;;;;-1.39;45.44;100056.17;446951;1268;127645;-73
2022/03/06 16:56:01;;;;;;;12.30;9.00;;;;;;;-1.46;45.55;100061.21;447380;1270;141466;-75
2022/03/06 17:06:07;;;;;;;11.60;9.90;;;;;;;-1.46;46.07;100060.02;446541;1270;142516;-71
2022/03/06 17:16:14;;;;;;;11.60;9.50;;;;;;;-1.47;46.38;100057.44;447294;1270;144303;-74
2022/03/06 17:26:20;;;;;;;14.20;12.10;;;;;;;-1.45;46.54;100059.99;439645;1270;141505;-73
2022/03/06 17:36:25;;;;;;;16.20;12.90;;;;;;;-1.49;46.52;100060.37;433095;1271;141381;-74
2022/03/06 17:46:31;;;;;;;16.50;13.10;;;;;;;-1.55;46.76;100054.58;435184;1271;141087;-73
2022/03/06 17:56:37;;;;;;;17.80;12.50;;;;;;;-1.61;47.34;100058.22;447363;1270;141267;-73
2022/03/06 18:06:43;;;;;;;20.20;15.60;;;;;;;-1.62;47.87;100062.85;446578;1270;145471;-61
2022/03/06 18:16:49;;;;;;;19.40;14.10;;;;;;;-1.62;48.42;100062.51;447397;1270;142169;-62
2022/03/06 18:26:55;;;;;;;19.90;13.50;;;;;;;-1.62;48.56;100066.11;447450;1270;141698;-62
2022/03/06 18:37:01;;;;;;;17.30;12.50;;;;;;;-1.63;48.40;100060.11;446591;1270;141878;-62
2022/03/06 18:47:07;;;;;;;16.30;12.50;;;;;;;-1.65;48.00;100056.86;447316;1270;143548;-56
2022/03/06 18:57:13;;;;;;;16.50;13.90;;;;;;;-1.56;48.30;100061.10;446620;1270;144538;-58
2022/03/06 19:07:19;;;;;;;22.80;15.90;;;;;;;-1.41;48.67;100061.86;447262;1270;142429;-58
2022/03/06 19:17:24;;;;;;;18.30;11.90;;;;;;;-1.30;49.13;100060.41;441368;1271;141733;-54
2022/03/06 19:27:30;;;;;;;19.80;14.00;;;;;;;-1.22;48.91;100060.16;445268;1270;142871;-58
2022/03/06 19:37:36;;;;;;;31.20;18.20;;;;;;;-1.14;49.18;100062.52;447286;1270;141673;-58
2022/03/06 19:47:42;;;;;;;20.30;15.00;;;;;;;-1.15;49.41;100063.73;447403;1270;142356;-59
2022/03/06 19:57:48;;;;;;;18.90;13.40;;;;;;;-1.18;49.59;100064.27;430351;1270;145145;-58
2022/03/06 20:07:54;;;;;;;20.00;13.40;;;;;;;-1.20;49.78;100062.58;443467;1270;142263;-57
2022/03/06 20:17:59;;;;;;;18.70;14.80;;;;;;;-1.20;49.99;100056.89;447279;1268;142525;-63
2022/03/06 20:28:06;;;;;;;25.20;15.30;;;;;;;-1.27;50.08;100051.97;446530;1270;141874;-64
2022/03/06 20:38:27;;;;;;;19.50;14.90;;;;;;;-1.40;50.53;100048.63;447125;1270;190143;-63
2022/03/06 20:48:33;;;;;;;21.30;15.40;;;;;;;-1.45;50.56;100053.64;446537;1270;141373;-63
2022/03/06 20:58:40;;;;;;;21.10;15.10;;;;;;;-1.52;50.66;100053.52;447359;1270;142159;-62
2022/03/06 21:08:47;;;;;;;27.20;15.90;;;;;;;-1.61;50.95;100051.86;447429;1270;142155;-63
2022/03/06 21:18:52;;;;;;;21.60;15.50;;;;;;;-1.63;51.36;100051.18;446637;1270;141784;-62
2022/03/06 21:29:02;;;;;;;20.30;14.80;;;;;;;-1.66;51.43;100046.56;447246;1270;143020;-61
2022/03/06 21:39:09;;;;;;;20.30;14.90;;;;;;;-1.72;51.48;100045.23;436548;1270;141474;-65
2022/03/06 21:49:14;;;;;;;17.60;14.80;;;;;;;-1.78;51.39;100049.39;447300;1270;142544;-67
2022/03/06 21:59:20;;;;;;;21.90;15.70;;;;;;;-1.84;51.64;100039.82;447324;1270;141443;-67
2022/03/06 22:09:26;;;;;;;24.50;15.90;;;;;;;-1.84;51.83;100035.36;446456;1270;142283;-66
2022/03/06 22:19:32;;;;;;;23.40;16.30;;;;;;;-1.85;51.79;100034.15;447324;1270;143133;-67
2022/03/06 22:29:38;;;;;;;19.80;16.80;;;;;;;-1.85;52.14;100033.81;447328;1270;142612;-66
2022/03/06 22:39:44;;;;;;;20.60;14.00;;;;;;;-1.86;52.17;100033.13;446626;1270;141662;-66
2022/03/06 22:49:50;;;;;;;20.60;14.70;;;;;;;-1.87;52.23;100035.38;447297;1270;141798;-66
2022/03/06 22:59:56;;;;;;;24.10;14.30;;;;;;;-1.89;52.51;100025.60;433135;1271;141095;-72
2022/03/06 23:10:02;;;;;;;20.10;14.30;;;;;;;-1.94;52.82;100024.60;434058;1270;141835;-74
2022/03/06 23:20:10;;;;;;;19.10;14.40;;;;;;;-2.01;53.24;100020.16;434994;1270;141431;-71
2022/03/06 23:30:17;;;;;;;22.40;15.40;;;;;;;-2.06;53.68;100017.80;446462;1270;141508;-72
2022/03/06 23:40:22;;;;;;;16.70;12.60;;;;;;;-2.05;54.01;100027.41;438098;1270;141292;-71
2022/03/06 23:50:29;;;;;;;20.30;13.90;;;;;;;-2.10;54.51;100030.52;434366;1270;142027;-72
